Latest Coastal Weather Observations for Parndana

IDS60701

Issued at 2:05 pm CDT Sunday 23 November 2014 (issued every 10 minutes, with the page automatically refreshed every 10 minutes)

About coastal observations | Map of coastal stations | Coastal observations for SA | Marine services | Other Formats
Station Details ID: 022843 Name: PARNDANA CFS AWS Lat: -35.79 Lon: 137.25 Height: 165.0 m
Data from the previous 72 hours. | See also: Recent months at Parndana
Date/Time
CDT
Temp

°C
Wind Pressure Rain
since 9am
mm
Weather Cloud Vis
km
Sea
Height
m
Swell
Dir
 
Speed
knots
Gust
knots
hPa Trend Height
m
Period
s
Dir
23/02:00pm 24.3 W 4 7 - - 0.0 - - - - - - -
23/01:30pm 23.8 WSW 6 11 - - 0.0 - - - - - - -
23/01:00pm 23.1 NW 8 12 - - 0.0 - - - - - - -
23/12:30pm 22.7 NNW 9 14 - - 0.0 - - - - - - -
23/12:00pm 22.0 NW 10 15 - - 0.0 - - - - - - -
23/11:30am 22.5 NNW 10 15 - - 0.0 - - - - - - -
23/11:00am 21.6 NNW 8 12 - - 0.0 - - - - - - -
23/10:30am 20.7 NNW 4 7 - - 0.0 - - - - - - -
23/10:00am 20.0 N 4 8 - - 0.0 - - - - - - -
23/09:30am 18.8 NNW 4 6 - - 0.0 - - - - - - -
23/09:00am 17.0 NNW 3 5 - - 0.0 - - - - - - -
23/08:30am 14.4 NW 4 5 - - 0.0 - - - - - - -
23/08:00am 13.3 N 4 5 - - 0.0 - - - - - - -
23/07:30am 12.9 NNW 2 2 - - 0.0 - - - - - - -
23/07:00am 10.3 NNW 3 3 - - 0.0 - - - - - - -
23/06:30am 9.8 NNW 3 3 - - 0.0 - - - - - - -
23/06:00am 7.2 NW 4 5 - - 0.0 - - - - - - -
23/05:30am 8.7 N 4 4 - - 0.0 - - - - - - -
23/05:00am 8.2 N 4 4 - - 0.0 - - - - - - -
23/04:30am 7.5 NW 3 4 - - 0.0 - - - - - - -
23/04:00am 8.5 WNW 3 4 - - 0.0 - - - - - - -
23/03:30am 8.9 WNW 4 5 - - 0.0 - - - - - - -
23/03:00am 9.0 WNW 3 4 - - 0.0 - - - - - - -
23/02:30am 9.0 WNW 4 5 - - 0.0 - - - - - - -
23/02:00am 9.5 NW 5 5 - - 0.0 - - - - - - -
23/01:30am 9.5 NW 3 4 - - 0.0 - - - - - - -
23/01:00am 10.0 NNW 5 6 - - 0.0 - - - - - - -
23/12:30am 10.5 NW 4 5 - - 0.0 - - - - - - -
23/12:00am 11.9 NNW 3 4 - - 0.0 - - - - - - -
 
Date/Time
CDT
Temp

°C
Wind Pressure Rain
since 9am
mm
Weather Cloud Vis
km
Sea
Height
m
Swell
Dir
 
Speed
knots
Gust
knots
hPa Trend Height
m
Period
s
Dir
22/11:30pm 11.8 NNW 2 3 - - 0.0 - - - - - - -
22/11:00pm 12.4 SW 2 2 - - 0.0 - - - - - - -
22/10:30pm 12.8 SW 2 3 - - 0.0 - - - - - - -
22/10:00pm 12.6 WSW 3 4 - - 0.0 - - - - - - -
22/09:30pm 13.1 SW 5 6 - - 0.0 - - - - - - -
22/09:00pm 13.9 SSW 6 8 - - 0.0 - - - - - - -
22/08:30pm 14.9 SSW 9 13 - - 0.0 - - - - - - -
22/08:00pm 15.8 SSW 11 14 - - 0.0 - - - - - - -
22/07:30pm 17.1 SSW 13 16 - - 0.0 - - - - - - -
22/07:00pm 18.6 SSW 12 18 - - 0.0 - - - - - - -
22/06:30pm 20.6 WSW 12 17 - - 0.0 - - - - - - -
22/06:00pm 21.4 WSW 13 18 - - 0.0 - - - - - - -
22/05:30pm 22.4 WSW 15 22 - - 0.0 - - - - - - -
22/05:00pm 23.8 WSW 14 22 - - 0.0 - - - - - - -
22/04:30pm 24.2 WSW 16 23 - - 0.0 - - - - - - -
22/04:00pm 25.4 WSW 14 21 - - 0.0 - - - - - - -
22/03:30pm 25.1 SSW 11 15 - - 0.0 - - - - - - -
22/03:00pm 23.8 S 11 15 - - 0.0 - - - - - - -
22/02:30pm 26.9 NNW 8 13 - - 0.0 - - - - - - -
22/02:00pm 27.2 WNW 13 18 - - 0.0 - - - - - - -
22/01:30pm 28.5 WNW 13 18 - - 0.0 - - - - - - -
22/01:00pm 27.8 WNW 13 20 - - 0.0 - - - - - - -
22/12:30pm 26.8 W 9 13 - - 0.0 - - - - - - -
22/12:00pm 26.1 NW 11 16 - - 0.0 - - - - - - -
22/11:30am 26.2 NW 12 16 - - 0.0 - - - - - - -
22/11:00am 25.4 WNW 14 19 - - 0.0 - - - - - - -
22/10:30am 25.9 NW 12 17 - - 0.0 - - - - - - -
22/10:00am 24.5 NW 11 15 - - 0.0 - - - - - - -
22/09:30am 22.9 NNW 11 16 - - 0.0 - - - - - - -
22/09:00am 22.3 NNW 11 15 - - 0.2 - - - - - - -
22/08:30am 21.1 NNW 9 14 - - 0.2 - - - - - - -
22/08:00am 20.2 N 9 13 - - 0.2 - - - - - - -
22/07:30am 17.5 N 7 9 - - 0.2 - - - - - - -
22/07:00am 17.0 N 8 10 - - 0.2 - - - - - - -
22/06:30am 15.9 N 7 8 - - 0.2 - - - - - - -
22/06:00am 16.9 N 7 9 - - 0.2 Recent precip. - - - - - -
22/05:30am 15.9 NW 8 13 - - 0.2 - - - - - - -
22/05:00am 16.3 N 5 8 - - 0.0 - - - - - - -
22/04:30am 16.4 NNE 6 8 - - 0.0 - - - - - - -
22/04:00am 15.7 NE 5 6 - - 0.0 - - - - - - -
22/03:30am 15.8 ESE 4 5 - - 0.0 - - - - - - -
22/03:00am 16.9 S 8 12 - - 0.0 - - - - - - -
22/02:30am 19.0 SSW 9 18 - - 0.0 - - - - - - -
22/02:00am 19.3 SW 6 9 - - 0.0 - - - - - - -
22/01:30am 19.0 N 7 9 - - 0.0 - - - - - - -
22/01:00am 17.7 N 9 11 - - 0.0 - - - - - - -
22/12:30am 16.7 N 9 13 - - 0.0 - - - - - - -
22/12:00am 16.1 NNE 9 13 - - 0.0 - - - - - - -
 
Date/Time
CDT
Temp

°C
Wind Pressure Rain
since 9am
mm
Weather Cloud Vis
km
Sea
Height
m
Swell
Dir
 
Speed
knots
Gust
knots
hPa Trend Height
m
Period
s
Dir
21/11:30pm 15.0 N 8 11 - - 0.0 - - - - - - -
21/11:00pm 15.3 N 8 9 - - 0.0 - - - - - - -
21/10:30pm 15.4 N 6 8 - - 0.0 - - - - - - -
21/10:00pm 15.4 NNE 6 8 - - 0.0 - - - - - - -
21/09:30pm 15.6 NNE 7 9 - - 0.0 - - - - - - -
21/09:00pm 16.0 NNE 7 9 - - 0.0 - - - - - - -
21/08:30pm 17.3 NE 7 8 - - 0.0 - - - - - - -
21/08:00pm 18.6 N 5 6 - - 0.0 - - - - - - -
21/07:30pm 20.7 N 5 7 - - 0.0 - - - - - - -
21/07:00pm 20.9 N 6 10 - - 0.0 - - - - - - -
21/06:30pm 21.2 N 7 10 - - 0.0 - - - - - - -
21/06:00pm 21.0 NNW 7 10 - - 0.0 - - - - - - -
21/05:30pm 20.9 NNW 8 11 - - 0.0 - - - - - - -
21/05:00pm 22.2 NW 11 14 - - 0.0 - - - - - - -
21/04:30pm 22.6 N 9 12 - - 0.0 - - - - - - -
21/04:00pm 22.3 N 10 13 - - 0.0 - - - - - - -
21/03:30pm 23.2 NNW 10 14 - - 0.0 - - - - - - -
21/03:00pm 22.0 NNW 12 16 - - 0.0 - - - - - - -
21/02:30pm 20.1 NW 10 14 - - 0.0 - - - - - - -
21/02:00pm 19.8 NNW 9 14 - - 0.0 - - - - - - -
21/01:30pm 20.7 NW 11 16 - - 0.0 - - - - - - -
21/01:00pm 20.6 NW 12 16 - - 0.0 - - - - - - -
21/12:30pm 19.9 NNW 9 16 - - 0.0 - - - - - - -
21/12:00pm 19.9 NNW 9 13 - - 0.0 - - - - - - -
21/11:30am 18.5 NNW 9 14 - - 0.0 - - - - - - -
21/11:00am 19.1 NNW 8 14 - - 0.0 - - - - - - -
21/10:30am 18.7 NW 9 12 - - 0.0 - - - - - - -
21/10:00am 17.9 NNW 8 14 - - 0.0 - - - - - - -
21/09:30am 16.4 NNW 9 12 - - 0.0 - - - - - - -
21/09:00am 16.1 NW 8 11 - - 3.6 - - - - - - -
21/08:30am 14.6 NNW 4 6 - - 3.6 - - - - - - -
21/08:00am 12.8 NW 3 4 - - 3.6 - - - - - - -
21/07:30am 10.9 NW 3 4 - - 3.6 - - - - - - -
21/07:00am 8.9 NNW 3 4 - - 3.6 - - - - - - -
21/06:30am 7.9 NW 4 4 - - 3.6 - - - - - - -
21/06:00am 7.9 WNW 5 5 - - 3.6 - - - - - - -
21/05:30am 8.3 W 4 4 - - 3.6 - - - - - - -
21/05:00am 7.6 W 4 5 - - 3.6 - - - - - - -
21/04:30am 7.7 W 4 5 - - 3.6 - - - - - - -
21/04:00am 8.0 NW 5 5 - - 3.6 - - - - - - -
21/03:30am 8.2 WNW 4 5 - - 3.6 - - - - - - -
21/03:00am 8.1 W 6 6 - - 3.6 - - - - - - -
21/02:30am 8.0 W 6 7 - - 3.6 - - - - - - -
21/02:00am 8.0 W 5 6 - - 3.6 - - - - - - -
21/01:30am 9.0 WNW 4 5 - - 3.6 - - - - - - -
21/01:00am 10.0 W 5 6 - - 3.6 - - - - - - -
21/12:30am 9.3 WNW 5 5 - - 3.6 - - - - - - -
21/12:00am 9.9 W 5 6 - - 3.6 - - - - - - -
 
Date/Time
CDT
Temp

°C
Wind Pressure Rain
since 9am
mm
Weather Cloud Vis
km
Sea
Height
m
Swell
Dir
 
Speed
knots
Gust
knots
hPa Trend Height
m
Period
s
Dir
20/11:30pm 11.4 W 5 5 - - 3.6 - - - - - - -
20/11:00pm 10.3 W 5 5 - - 3.6 - - - - - - -
20/10:30pm 12.0 W 5 5 - - 3.6 - - - - - - -
20/10:00pm 11.8 SW 3 4 - - 3.6 - - - - - - -
20/09:30pm 12.9 SW 4 6 - - 3.6 - - - - - - -
20/09:00pm 12.5 SW 6 8 - - 3.6 - - - - - - -
20/08:30pm 13.4 SW 8 12 - - 3.6 - - - - - - -
20/08:00pm 14.3 SSW 8 13 - - 3.6 - - - - - - -
20/07:30pm 14.5 SW 11 16 - - 3.6 - - - - - - -
20/07:00pm 14.2 SW 11 17 - - 3.6 - - - - - - -
20/06:30pm 15.2 SW 11 16 - - 3.6 - - - - - - -
20/06:00pm 16.1 SW 12 19 - - 3.6 - - - - - - -
20/05:30pm 17.2 SW 13 18 - - 3.6 - - - - - - -
20/05:00pm 17.8 WSW 13 17 - - 3.6 - - - - - - -
20/04:30pm 18.4 WSW 17 22 - - 3.6 - - - - - - -
20/04:00pm 19.7 WSW 16 20 - - 3.6 - - - - - - -
20/03:30pm 21.8 SW 15 21 - - 3.6 - - - - - - -
20/03:00pm 22.0 WSW 16 21 - - 3.6 - - - - - - -
20/02:30pm 22.0 WSW 13 18 - - 3.6 - - - - - - -

Other Formats:

Comma delimited format used in spreadsheet applications
http://www.bom.gov.au/fwo/IDS60701/IDS60701.94807.axf

JavaScript Object Notation format (JSON) in row-major order
http://www.bom.gov.au/fwo/IDS60701/IDS60701.94807.json